Time;durP1;ratioP1;P1;durP2;ratioP2;P2;SDS_P1;SDS_P2;PMS_P1;PMS_P2;Temp;Humidity;BMP_temperature;BMP_pressure;BME280_temperature;BME280_humidity;BME280_pressure;Samples;Min_cycle;Max_cycle;Signal;HPM_P1;HPM_P2
2022/10/20 00:01:12;;;;;;;19.52;9.95;;;;;;;;;;5031991;28;20029;-66
2022/10/20 00:03:39;;;;;;;16.40;9.35;;;;;;;;;;5031787;28;20461;-65
2022/10/20 00:06:08;;;;;;;16.90;9.70;;;;;;;;;;5030845;28;20113;-65
2022/10/20 00:08:34;;;;;;;18.95;9.10;;;;;;;;;;5030921;28;20021;-65
2022/10/20 00:11:00;;;;;;;17.88;9.95;;;;;;;;;;5032090;28;20108;-64
2022/10/20 00:13:26;;;;;;;16.05;9.35;;;;;;;;;;5031725;28;20527;-65
2022/10/20 00:15:53;;;;;;;17.88;10.23;;;;;;;;;;5030523;28;20141;-64
2022/10/20 00:18:19;;;;;;;19.20;10.02;;;;;;;;;;5031775;28;20692;-65
2022/10/20 00:20:45;;;;;;;18.65;10.13;;;;;;;;;;5032041;28;20025;-67
2022/10/20 00:23:12;;;;;;;17.38;9.38;;;;;;;;;;5031553;28;20104;-66
2022/10/20 00:25:38;;;;;;;17.33;9.48;;;;;;;;;;5031631;28;20033;-65
2022/10/20 00:28:04;;;;;;;18.45;10.48;;;;;;;;;;5031765;28;20021;-64
2022/10/20 00:30:30;;;;;;;19.63;9.77;;;;;;;;;;5031039;28;20100;-65
2022/10/20 00:32:56;;;;;;;22.30;10.93;;;;;;;;;;5030122;28;20409;-66
2022/10/20 00:35:22;;;;;;;17.48;9.88;;;;;;;;;;5029248;28;20022;-65
2022/10/20 00:37:48;;;;;;;19.60;10.35;;;;;;;;;;5030108;28;20501;-64
2022/10/20 00:40:14;;;;;;;20.02;10.30;;;;;;;;;;5031329;28;20022;-64
2022/10/20 00:42:44;;;;;;;18.65;10.45;;;;;;;;;;5031014;28;20477;-63
2022/10/20 00:45:14;;;;;;;17.27;9.68;;;;;;;;;;5030033;28;20021;-64
2022/10/20 00:47:42;;;;;;;20.70;10.32;;;;;;;;;;5031268;28;20022;-64
2022/10/20 00:50:11;;;;;;;16.57;10.00;;;;;;;;;;5031438;28;20032;-64
2022/10/20 00:52:38;;;;;;;18.27;10.50;;;;;;;;;;5031330;28;20358;-65
2022/10/20 00:55:05;;;;;;;17.65;9.77;;;;;;;;;;5030864;28;20026;-65
2022/10/20 00:57:31;;;;;;;22.77;9.90;;;;;;;;;;5031184;28;20036;-67
2022/10/20 00:59:57;;;;;;;18.55;10.50;;;;;;;;;;5029666;28;20025;-65
2022/10/20 01:02:23;;;;;;;19.88;10.23;;;;;;;;;;5030780;28;20041;-65
2022/10/20 01:04:50;;;;;;;19.15;10.55;;;;;;;;;;5031030;28;20014;-64
2022/10/20 01:07:16;;;;;;;18.33;10.40;;;;;;;;;;5031063;28;20027;-65
2022/10/20 01:09:42;;;;;;;19.73;10.88;;;;;;;;;;5029594;28;20162;-66
2022/10/20 01:12:18;;;;;;;18.45;10.48;;;;;;;;;;5031120;28;20409;-64
2022/10/20 01:14:47;;;;;;;17.58;10.20;;;;;;;;;;5030509;28;20025;-65
2022/10/20 01:17:30;;;;;;;19.58;10.30;;;;;;;;;;5030679;28;20017;-66
2022/10/20 01:19:57;;;;;;;20.50;10.20;;;;;;;;;;5030892;28;20083;-65
2022/10/20 01:22:39;;;;;;;16.85;10.38;;;;;;;;;;5030633;28;20100;-65
2022/10/20 01:25:14;;;;;;;19.83;10.68;;;;;;;;;;5030595;28;20032;-65
2022/10/20 01:28:13;;;;;;;19.50;10.55;;;;;;;;;;5030653;28;20403;-65
2022/10/20 01:30:43;;;;;;;18.38;11.02;;;;;;;;;;4986955;28;20072;-65
2022/10/20 01:33:32;;;;;;;18.00;10.60;;;;;;;;;;5028890;28;20029;-64
2022/10/20 01:36:07;;;;;;;20.25;11.38;;;;;;;;;;5020233;28;20104;-65
2022/10/20 01:38:39;;;;;;;19.55;10.95;;;;;;;;;;5030363;28;20021;-65
2022/10/20 01:41:12;;;;;;;20.23;12.05;;;;;;;;;;5030414;28;20036;-66
2022/10/20 01:43:38;;;;;;;20.35;11.02;;;;;;;;;;5030223;28;20030;-65
2022/10/20 01:46:05;;;;;;;19.55;11.15;;;;;;;;;;5030278;28;20021;-65
2022/10/20 01:48:33;;;;;;;18.38;11.40;;;;;;;;;;5030505;28;20021;-64
2022/10/20 01:51:00;;;;;;;17.52;10.90;;;;;;;;;;5030373;28;20022;-65
2022/10/20 01:53:26;;;;;;;20.95;11.63;;;;;;;;;;5034300;28;20029;-64
2022/10/20 01:55:53;;;;;;;20.73;12.25;;;;;;;;;;5049945;28;20373;-64
2022/10/20 01:58:22;;;;;;;23.35;12.10;;;;;;;;;;5049795;28;20032;-64
2022/10/20 02:00:50;;;;;;;19.10;10.95;;;;;;;;;;5049913;28;20074;-65
2022/10/20 02:03:39;;;;;;;21.50;11.50;;;;;;;;;;5048301;28;20013;-64
2022/10/20 02:06:19;;;;;;;19.00;11.02;;;;;;;;;;5044481;28;20053;-65
2022/10/20 02:08:59;;;;;;;20.15;12.30;;;;;;;;;;5048791;28;20017;-63
2022/10/20 02:12:00;;;;;;;18.67;11.75;;;;;;;;;;5050021;28;20024;-64
2022/10/20 02:14:26;;;;;;;19.38;11.15;;;;;;;;;;4991437;28;20084;-65
2022/10/20 02:16:56;;;;;;;19.58;12.07;;;;;;;;;;5036296;28;20056;-64
2022/10/20 02:19:23;;;;;;;19.45;11.90;;;;;;;;;;5049688;28;20025;-64
2022/10/20 02:21:51;;;;;;;18.90;11.60;;;;;;;;;;5049863;28;20024;-64
2022/10/20 02:24:18;;;;;;;19.13;11.03;;;;;;;;;;5049702;28;20087;-65
2022/10/20 02:26:44;;;;;;;20.80;12.15;;;;;;;;;;5048545;28;20267;-64
2022/10/20 02:29:13;;;;;;;20.73;12.25;;;;;;;;;;5049858;28;20069;-64
2022/10/20 02:31:39;;;;;;;20.65;12.00;;;;;;;;;;5049652;28;20045;-65
2022/10/20 02:34:05;;;;;;;19.25;12.73;;;;;;;;;;5048045;28;20075;-65
2022/10/20 02:36:31;;;;;;;23.73;12.77;;;;;;;;;;5049630;28;20032;-66
2022/10/20 02:38:57;;;;;;;20.27;12.90;;;;;;;;;;5049527;28;20025;-64
2022/10/20 02:41:23;;;;;;;23.00;12.68;;;;;;;;;;5049647;28;20065;-65
2022/10/20 02:43:49;;;;;;;21.67;12.90;;;;;;;;;;5049273;28;20055;-66
2022/10/20 02:46:15;;;;;;;22.65;12.93;;;;;;;;;;5049469;28;20078;-65
2022/10/20 02:48:41;;;;;;;20.30;13.98;;;;;;;;;;5049650;28;20029;-65
2022/10/20 02:51:07;;;;;;;24.02;13.55;;;;;;;;;;5049600;28;20021;-65
2022/10/20 02:53:33;;;;;;;22.88;12.82;;;;;;;;;;5048020;28;20064;-65
2022/10/20 02:56:00;;;;;;;21.80;13.82;;;;;;;;;;5049491;28;20029;-65
2022/10/20 02:58:25;;;;;;;25.85;13.88;;;;;;;;;;5051833;28;20090;-66
2022/10/20 03:00:51;;;;;;;23.42;13.93;;;;;;;;;;5051721;28;20025;-64
2022/10/20 03:03:18;;;;;;;21.75;13.25;;;;;;;;;;5052877;28;20020;-65
2022/10/20 03:05:44;;;;;;;20.48;13.98;;;;;;;;;;5051879;28;20054;-63
2022/10/20 03:08:11;;;;;;;21.58;14.13;;;;;;;;;;5051962;28;20635;-65
2022/10/20 03:10:37;;;;;;;24.98;16.55;;;;;;;;;;5052931;28;20112;-63
2022/10/20 03:13:04;;;;;;;20.48;13.68;;;;;;;;;;5040170;28;20029;-64
2022/10/20 03:15:30;;;;;;;25.00;14.75;;;;;;;;;;5031742;28;20488;-66
2022/10/20 03:17:56;;;;;;;22.58;14.35;;;;;;;;;;5031675;28;20021;-64
2022/10/20 03:20:22;;;;;;;20.60;14.05;;;;;;;;;;5032818;28;20636;-64
2022/10/20 03:22:48;;;;;;;24.63;15.05;;;;;;;;;;5032832;28;20025;-64
2022/10/20 03:25:14;;;;;;;22.92;14.85;;;;;;;;;;5032680;28;20018;-64
2022/10/20 03:27:40;;;;;;;23.88;15.30;;;;;;;;;;5033004;28;20021;-65
2022/10/20 03:30:07;;;;;;;22.98;14.85;;;;;;;;;;5032922;28;20022;-64
2022/10/20 03:32:33;;;;;;;24.20;15.13;;;;;;;;;;5033012;28;20100;-65
2022/10/20 03:34:59;;;;;;;25.85;15.02;;;;;;;;;;5032756;28;20045;-64
2022/10/20 03:37:25;;;;;;;24.95;16.25;;;;;;;;;;5031458;28;20508;-64
2022/10/20 03:39:51;;;;;;;22.25;14.38;;;;;;;;;;5032633;28;20053;-64
2022/10/20 03:42:17;;;;;;;24.40;14.88;;;;;;;;;;5032377;28;20025;-65
2022/10/20 03:44:45;;;;;;;25.50;15.80;;;;;;;;;;5032329;28;20022;-65
2022/10/20 03:47:12;;;;;;;24.98;15.77;;;;;;;;;;5031222;28;20025;-64
2022/10/20 03:49:38;;;;;;;25.02;16.38;;;;;;;;;;5032480;28;20100;-65
2022/10/20 03:52:05;;;;;;;24.23;16.33;;;;;;;;;;5032300;28;20021;-65
2022/10/20 03:54:31;;;;;;;22.65;14.60;;;;;;;;;;5032237;28;20025;-65
2022/10/20 03:56:57;;;;;;;23.85;15.60;;;;;;;;;;5032481;28;20021;-64
2022/10/20 03:59:23;;;;;;;25.52;16.25;;;;;;;;;;5032188;28;20029;-64
2022/10/20 04:01:49;;;;;;;26.98;16.90;;;;;;;;;;5032164;28;20022;-65
2022/10/20 04:04:15;;;;;;;23.58;15.95;;;;;;;;;;5032049;28;20378;-64
2022/10/20 04:06:41;;;;;;;24.30;16.20;;;;;;;;;;5032171;28;20018;-65
2022/10/20 04:09:07;;;;;;;27.02;17.20;;;;;;;;;;5031044;28;20528;-65
2022/10/20 04:11:33;;;;;;;25.23;16.48;;;;;;;;;;5030938;28;20025;-66
2022/10/20 04:13:59;;;;;;;24.13;16.13;;;;;;;;;;5031953;28;20040;-65
2022/10/20 04:16:25;;;;;;;25.38;15.63;;;;;;;;;;5031987;28;20021;-65
2022/10/20 04:18:52;;;;;;;23.95;15.70;;;;;;;;;;5031790;28;20025;-66
2022/10/20 04:21:18;;;;;;;23.83;16.27;;;;;;;;;;5031805;28;20389;-64
2022/10/20 04:23:44;;;;;;;24.10;16.33;;;;;;;;;;5031482;28;20021;-64
2022/10/20 04:26:10;;;;;;;25.50;16.42;;;;;;;;;;5031919;28;20021;-64
2022/10/20 04:28:36;;;;;;;25.42;16.02;;;;;;;;;;5031946;28;20396;-63
2022/10/20 04:31:03;;;;;;;24.67;16.40;;;;;;;;;;5031822;28;20031;-63
2022/10/20 04:33:29;;;;;;;24.13;15.73;;;;;;;;;;5031187;28;20105;-64
2022/10/20 04:36:02;;;;;;;23.40;16.05;;;;;;;;;;5031612;28;20029;-64
2022/10/20 04:38:29;;;;;;;23.60;15.82;;;;;;;;;;5030358;28;20029;-64
2022/10/20 04:40:56;;;;;;;24.75;17.05;;;;;;;;;;5030277;28;20466;-63
2022/10/20 04:43:22;;;;;;;24.35;15.48;;;;;;;;;;5062862;23;20043;-59
2022/10/20 04:45:48;;;;;;;22.65;15.88;;;;;;;;;;5072434;28;20064;-58
2022/10/20 04:48:14;;;;;;;25.80;15.60;;;;;;;;;;5070658;28;20105;-59
2022/10/20 04:50:40;;;;;;;22.35;15.55;;;;;;;;;;5072750;28;20475;-59
2022/10/20 04:53:07;;;;;;;23.23;15.88;;;;;;;;;;5071943;28;20538;-59
2022/10/20 04:55:33;;;;;;;24.30;15.80;;;;;;;;;;5072260;28;20025;-61
2022/10/20 04:57:59;;;;;;;27.58;15.93;;;;;;;;;;5073558;28;20023;-58
2022/10/20 05:00:25;;;;;;;24.60;16.58;;;;;;;;;;5071961;28;20028;-59
2022/10/20 05:02:51;;;;;;;24.73;16.05;;;;;;;;;;5073105;28;20020;-60
2022/10/20 05:05:17;;;;;;;24.85;15.48;;;;;;;;;;5071884;28;20019;-59
2022/10/20 05:07:43;;;;;;;31.85;19.10;;;;;;;;;;5072061;28;20032;-59
2022/10/20 05:10:09;;;;;;;26.33;15.52;;;;;;;;;;5072204;28;20021;-59
2022/10/20 05:12:35;;;;;;;26.75;16.92;;;;;;;;;;5072062;28;20032;-63
2022/10/20 05:15:01;;;;;;;24.58;16.70;;;;;;;;;;5070618;28;20021;-59
2022/10/20 05:17:29;;;;;;;26.60;17.15;;;;;;;;;;5067229;28;20031;-63
2022/10/20 05:19:55;;;;;;;25.85;16.10;;;;;;;;;;5051847;28;20100;-59
2022/10/20 05:22:21;;;;;;;24.80;14.93;;;;;;;;;;5051512;28;20021;-61
2022/10/20 05:24:47;;;;;;;23.55;15.57;;;;;;;;;;5051312;28;20028;-62
2022/10/20 05:27:13;;;;;;;23.48;15.45;;;;;;;;;;5051599;28;20020;-61
2022/10/20 05:29:39;;;;;;;24.15;16.05;;;;;;;;;;5051426;28;20021;-61
2022/10/20 05:32:05;;;;;;;27.58;17.13;;;;;;;;;;5050326;28;20539;-61
2022/10/20 05:34:30;;;;;;;27.15;15.40;;;;;;;;;;5049808;28;20017;-61
2022/10/20 05:36:56;;;;;;;24.15;15.65;;;;;;;;;;5049835;28;20028;-63
2022/10/20 05:39:23;;;;;;;23.98;15.20;;;;;;;;;;5050981;28;20058;-63
2022/10/20 05:41:48;;;;;;;22.92;15.35;;;;;;;;;;5051106;28;20032;-63
2022/10/20 05:44:14;;;;;;;25.15;17.50;;;;;;;;;;5050437;28;20039;-63
2022/10/20 05:46:41;;;;;;;25.42;15.68;;;;;;;;;;5050869;28;20075;-62
2022/10/20 05:49:10;;;;;;;27.50;16.65;;;;;;;;;;5051185;28;20021;-63
2022/10/20 05:51:36;;;;;;;26.08;16.10;;;;;;;;;;5051443;28;20024;-61
2022/10/20 05:54:03;;;;;;;24.40;15.00;;;;;;;;;;5050859;28;20021;-64
2022/10/20 05:56:29;;;;;;;22.63;15.13;;;;;;;;;;5051316;28;20025;-62
2022/10/20 05:58:56;;;;;;;24.48;15.43;;;;;;;;;;5051263;28;20021;-62
2022/10/20 06:01:26;;;;;;;23.45;15.77;;;;;;;;;;5050006;28;20017;-62
2022/10/20 06:03:53;;;;;;;23.70;15.43;;;;;;;;;;5050714;28;20495;-61
2022/10/20 06:06:20;;;;;;;26.75;15.40;;;;;;;;;;5051751;28;20061;-64
2022/10/20 06:08:47;;;;;;;22.55;16.42;;;;;;;;;;5051283;28;20021;-65
2022/10/20 06:11:14;;;;;;;23.15;14.77;;;;;;;;;;5050974;28;20032;-63
2022/10/20 06:13:40;;;;;;;23.35;14.57;;;;;;;;;;5050782;28;20108;-64
2022/10/20 06:16:06;;;;;;;23.50;15.48;;;;;;;;;;5051164;28;20067;-65
2022/10/20 06:18:32;;;;;;;20.85;14.65;;;;;;;;;;5064680;28;20020;-65
2022/10/20 06:20:59;;;;;;;27.90;16.17;;;;;;;;;;5070983;28;20035;-66
2022/10/20 06:23:25;;;;;;;21.15;13.88;;;;;;;;;;5069508;28;20078;-64
2022/10/20 06:25:51;;;;;;;21.50;14.15;;;;;;;;;;5071190;28;20016;-64
2022/10/20 06:28:17;;;;;;;21.77;14.73;;;;;;;;;;5070926;28;20025;-59
2022/10/20 06:30:43;;;;;;;23.42;14.52;;;;;;;;;;5071045;28;20024;-60
2022/10/20 06:33:11;;;;;;;23.83;14.48;;;;;;;;;;5072741;28;20024;-60
2022/10/20 06:35:37;;;;;;;23.80;13.15;;;;;;;;;;5074893;28;20016;-60
2022/10/20 06:38:03;;;;;;;24.42;13.95;;;;;;;;;;5073557;28;20024;-66
2022/10/20 06:40:29;;;;;;;22.00;13.50;;;;;;;;;;5074692;28;20035;-55
2022/10/20 06:42:55;;;;;;;22.27;13.35;;;;;;;;;;5074280;28;20028;-56
2022/10/20 06:45:21;;;;;;;21.73;13.80;;;;;;;;;;5074075;28;20460;-57
2022/10/20 06:47:47;;;;;;;22.02;13.52;;;;;;;;;;5074604;28;20063;-58
2022/10/20 06:50:13;;;;;;;23.08;13.68;;;;;;;;;;5073294;28;20349;-60
2022/10/20 06:52:39;;;;;;;19.80;12.32;;;;;;;;;;5074377;28;20028;-61
2022/10/20 06:55:06;;;;;;;21.23;13.52;;;;;;;;;;5074271;28;20128;-60
2022/10/20 06:57:32;;;;;;;21.08;13.60;;;;;;;;;;5074534;28;20024;-60
2022/10/20 06:59:58;;;;;;;20.45;13.27;;;;;;;;;;5074468;28;20024;-61
2022/10/20 07:02:24;;;;;;;21.60;12.75;;;;;;;;;;5074291;28;20060;-58
2022/10/20 07:04:50;;;;;;;20.98;13.45;;;;;;;;;;5074220;28;20483;-60
2022/10/20 07:07:16;;;;;;;22.40;12.85;;;;;;;;;;5072818;28;20036;-61
2022/10/20 07:09:42;;;;;;;24.05;14.32;;;;;;;;;;5074357;28;20021;-58
2022/10/20 07:12:08;;;;;;;20.52;12.52;;;;;;;;;;5074129;28;20029;-56
2022/10/20 07:14:36;;;;;;;21.00;13.20;;;;;;;;;;5072357;28;20494;-57
2022/10/20 07:17:02;;;;;;;21.48;12.80;;;;;;;;;;5073012;28;20435;-62
2022/10/20 07:19:28;;;;;;;22.40;13.07;;;;;;;;;;5052724;28;20025;-61
2022/10/20 07:21:54;;;;;;;29.10;14.00;;;;;;;;;;5052654;28;20542;-59
2022/10/20 07:24:20;;;;;;;20.00;12.88;;;;;;;;;;5053891;28;20025;-59
2022/10/20 07:26:46;;;;;;;19.80;12.50;;;;;;;;;;5053902;28;20461;-60
2022/10/20 07:29:13;;;;;;;20.00;12.80;;;;;;;;;;5053800;28;20100;-60
2022/10/20 07:31:44;;;;;;;21.48;13.07;;;;;;;;;;5054096;28;20045;-60
2022/10/20 07:34:11;;;;;;;20.10;12.30;;;;;;;;;;5053519;28;20503;-59
2022/10/20 07:36:37;;;;;;;21.80;12.05;;;;;;;;;;5054082;28;20025;-57
2022/10/20 07:39:05;;;;;;;20.40;12.15;;;;;;;;;;5053834;28;20350;-57
2022/10/20 07:41:31;;;;;;;18.88;12.02;;;;;;;;;;5053869;28;20024;-60
2022/10/20 07:43:57;;;;;;;20.17;12.38;;;;;;;;;;5052921;28;20036;-65
2022/10/20 07:46:24;;;;;;;19.80;12.35;;;;;;;;;;5052484;28;20473;-66
2022/10/20 07:48:50;;;;;;;20.08;12.30;;;;;;;;;;5053147;28;20017;-66
2022/10/20 07:51:16;;;;;;;18.33;11.55;;;;;;;;;;5052394;28;20021;-66
2022/10/20 07:53:42;;;;;;;20.73;12.25;;;;;;;;;;5053419;28;20025;-64
2022/10/20 07:56:08;;;;;;;20.52;11.65;;;;;;;;;;5053633;28;20465;-67
2022/10/20 07:58:34;;;;;;;22.25;12.60;;;;;;;;;;5061392;28;20056;-65
2022/10/20 08:01:00;;;;;;;21.80;12.43;;;;;;;;;;5063577;28;20032;-65
2022/10/20 08:03:26;;;;;;;22.83;11.88;;;;;;;;;;5055122;28;20369;-62
2022/10/20 08:05:52;;;;;;;26.17;12.93;;;;;;;;;;5053476;28;20104;-67
2022/10/20 08:08:18;;;;;;;19.83;11.95;;;;;;;;;;5052016;28;20013;-65
2022/10/20 08:10:44;;;;;;;21.95;12.90;;;;;;;;;;5051353;28;20036;-67
2022/10/20 08:13:10;;;;;;;20.70;12.57;;;;;;;;;;5052418;28;20021;-66
2022/10/20 08:15:36;;;;;;;19.98;12.18;;;;;;;;;;5053280;28;20032;-67
2022/10/20 08:18:02;;;;;;;21.13;12.50;;;;;;;;;;5056987;28;20583;-63
2022/10/20 08:20:28;;;;;;;19.30;12.55;;;;;;;;;;5072678;28;20476;-62
2022/10/20 08:22:54;;;;;;;21.35;12.25;;;;;;;;;;5073352;28;20472;-63
2022/10/20 08:25:20;;;;;;;22.40;13.23;;;;;;;;;;5072881;28;20434;-63
2022/10/20 08:27:46;;;;;;;22.90;12.13;;;;;;;;;;5072602;28;20017;-64
2022/10/20 08:30:12;;;;;;;22.30;13.55;;;;;;;;;;5072965;28;20027;-62
2022/10/20 08:32:38;;;;;;;22.98;12.93;;;;;;;;;;5071497;28;20020;-63
2022/10/20 08:35:05;;;;;;;21.95;13.02;;;;;;;;;;5070801;28;20108;-64
2022/10/20 08:37:31;;;;;;;19.05;12.55;;;;;;;;;;5072022;28;20028;-63
2022/10/20 08:39:57;;;;;;;19.88;12.52;;;;;;;;;;5072563;28;20024;-63
2022/10/20 08:42:23;;;;;;;22.95;13.27;;;;;;;;;;5072045;28;20031;-64
2022/10/20 08:44:49;;;;;;;20.98;12.75;;;;;;;;;;5072156;28;20517;-63
2022/10/20 08:47:23;;;;;;;20.00;13.35;;;;;;;;;;5072087;28;20469;-63
2022/10/20 08:49:50;;;;;;;21.35;12.48;;;;;;;;;;5072316;28;20498;-68
2022/10/20 08:52:16;;;;;;;20.10;12.52;;;;;;;;;;5072038;28;20480;-65
2022/10/20 08:54:42;;;;;;;19.92;12.88;;;;;;;;;;5071666;28;20020;-65
2022/10/20 08:57:35;;;;;;;17.83;12.38;;;;;;;;;;5071862;28;20021;-65
2022/10/20 09:00:07;;;;;;;20.52;12.77;;;;;;;;;;5068388;28;20029;-64
2022/10/20 09:02:34;;;;;;;19.85;12.18;;;;;;;;;;5070831;28;20024;-65
2022/10/20 09:05:00;;;;;;;21.65;13.27;;;;;;;;;;5071678;28;20436;-65
2022/10/20 09:07:29;;;;;;;20.15;12.60;;;;;;;;;;5070676;28;20103;-65
2022/10/20 09:10:01;;;;;;;23.23;13.50;;;;;;;;;;5072120;28;20021;-65
2022/10/20 09:12:28;;;;;;;20.35;12.88;;;;;;;;;;5071884;28;20039;-66
2022/10/20 09:14:54;;;;;;;21.70;13.00;;;;;;;;;;5071571;28;20384;-65
2022/10/20 09:17:20;;;;;;;21.73;12.50;;;;;;;;;;5071566;28;20346;-65
2022/10/20 09:19:49;;;;;;;20.13;12.75;;;;;;;;;;5072057;28;20028;-66
2022/10/20 09:22:15;;;;;;;;;;;;;;;;;;5072360;28;20024;-66
2022/10/20 09:24:42;;;;;;;21.42;13.00;;;;;;;;;;5072014;28;19995;-66
2022/10/20 09:27:24;;;;;;;20.45;13.43;;;;;;;;;;5071844;28;20016;-66
2022/10/20 09:29:50;;;;;;;19.92;13.45;;;;;;;;;;5071679;28;20016;-66
2022/10/20 09:32:33;;;;;;;22.02;13.40;;;;;;;;;;5070748;28;20464;-64
2022/10/20 09:35:11;;;;;;;20.38;13.30;;;;;;;;;;5071562;28;20511;-66
2022/10/20 09:37:38;;;;;;;19.13;12.50;;;;;;;;;;5071904;28;20163;-66
2022/10/20 09:40:04;;;;;;;20.48;13.50;;;;;;;;;;5071972;28;20020;-66
2022/10/20 09:42:30;;;;;;;20.73;12.98;;;;;;;;;;5071334;28;20048;-67
2022/10/20 09:44:58;;;;;;;18.40;12.93;;;;;;;;;;5071227;28;20460;-66
2022/10/20 09:47:25;;;;;;;19.27;12.82;;;;;;;;;;5071473;28;20028;-67
2022/10/20 09:49:53;;;;;;;21.00;12.57;;;;;;;;;;5071460;28;20024;-66
2022/10/20 09:52:23;;;;;;;20.40;13.35;;;;;;;;;;5071478;28;20037;-67
2022/10/20 09:54:50;;;;;;;21.17;13.68;;;;;;;;;;5071288;28;20075;-67
2022/10/20 09:57:17;;;;;;;23.23;13.15;;;;;;;;;;5052110;28;20021;-66
2022/10/20 09:59:46;;;;;;;23.02;13.15;;;;;;;;;;5051672;28;20349;-67
2022/10/20 10:02:15;;;;;;;21.80;13.73;;;;;;;;;;5051738;28;20048;-67
2022/10/20 10:04:42;;;;;;;20.67;12.30;;;;;;;;;;5051562;28;20017;-67
2022/10/20 10:07:27;;;;;;;18.80;12.38;;;;;;;;;;5064462;28;20486;-67
2022/10/20 10:09:56;;;;;;;19.30;13.60;;;;;;;;;;5067422;28;20055;-67
2022/10/20 10:12:22;;;;;;;19.92;12.80;;;;;;;;;;5057944;28;20025;-66
2022/10/20 10:14:57;;;;;;;20.40;13.38;;;;;;;;;;5055174;28;20551;-66
2022/10/20 10:17:29;;;;;;;21.23;13.07;;;;;;;;;;5068236;28;20021;-66
2022/10/20 10:19:55;;;;;;;19.20;12.75;;;;;;;;;;5055343;28;20021;-67
2022/10/20 10:22:21;;;;;;;22.05;12.30;;;;;;;;;;5053905;28;20024;-66
2022/10/20 10:24:48;;;;;;;19.42;13.15;;;;;;;;;;5054834;28;20032;-66
2022/10/20 10:27:26;;;;;;;18.73;12.60;;;;;;;;;;5054953;28;20087;-65
2022/10/20 10:29:53;;;;;;;19.35;12.85;;;;;;;;;;5055185;28;20024;-65
2022/10/20 10:32:29;;;;;;;21.85;13.48;;;;;;;;;;5055132;28;20067;-66
2022/10/20 10:35:02;;;;;;;19.63;12.80;;;;;;;;;;5053474;28;20025;-67
2022/10/20 10:37:30;;;;;;;20.48;12.55;;;;;;;;;;5055514;28;20768;-67
2022/10/20 10:39:56;;;;;;;21.73;13.45;;;;;;;;;;5053760;28;20025;-65
2022/10/20 10:42:25;;;;;;;22.38;15.43;;;;;;;;;;5054466;28;20107;-65
2022/10/20 10:45:00;;;;;;;21.25;15.88;;;;;;;;;;5091289;22;20044;-62
2022/10/20 10:47:26;;;;;;;22.27;14.43;;;;;;;;;;5071500;28;20065;-63
2022/10/20 10:49:52;;;;;;;24.02;16.98;;;;;;;;;;5072160;28;20351;-63
2022/10/20 10:52:18;;;;;;;22.98;14.63;;;;;;;;;;5073376;28;20025;-64
2022/10/20 10:54:44;;;;;;;23.42;13.70;;;;;;;;;;5072974;28;20027;-64
2022/10/20 10:57:28;;;;;;;24.05;14.50;;;;;;;;;;5071881;28;20028;-63
2022/10/20 10:59:55;;;;;;;21.40;14.15;;;;;;;;;;5073474;28;20071;-63
2022/10/20 11:02:41;;;;;;;21.08;13.80;;;;;;;;;;5073238;28;20035;-63
2022/10/20 11:05:16;;;;;;;23.58;14.52;;;;;;;;;;5072451;28;20036;-63
2022/10/20 11:07:47;;;;;;;20.80;13.95;;;;;;;;;;5073233;28;20034;-63
2022/10/20 11:10:20;;;;;;;23.92;13.48;;;;;;;;;;5071843;28;20021;-62
2022/10/20 11:13:25;;;;;;;23.05;15.60;;;;;;;;;;5072865;28;20024;-64
2022/10/20 11:15:54;;;;;;;26.65;15.10;;;;;;;;;;4991441;28;20355;-63
2022/10/20 11:18:43;;;;;;;25.40;14.80;;;;;;;;;;4978951;28;20027;-63
2022/10/20 11:21:27;;;;;;;22.23;14.88;;;;;;;;;;5019712;28;20037;-62
2022/10/20 11:23:56;;;;;;;21.50;13.43;;;;;;;;;;5051321;28;20350;-63
2022/10/20 11:26:29;;;;;;;22.15;14.25;;;;;;;;;;5052818;28;20369;-63
2022/10/20 11:28:57;;;;;;;21.05;14.40;;;;;;;;;;5052467;28;20078;-63
2022/10/20 11:31:29;;;;;;;20.02;14.07;;;;;;;;;;5052653;28;20038;-63
2022/10/20 11:34:06;;;;;;;21.58;14.05;;;;;;;;;;5052103;28;20025;-63
2022/10/20 11:36:35;;;;;;;21.48;13.40;;;;;;;;;;5052440;28;20020;-63
2022/10/20 11:39:03;;;;;;;21.58;13.57;;;;;;;;;;5052512;28;20020;-64
2022/10/20 11:41:44;;;;;;;25.55;14.70;;;;;;;;;;5058607;28;20168;-66
2022/10/20 11:44:13;;;;;;;21.85;13.35;;;;;;;;;;5063940;28;20024;-62
2022/10/20 11:46:39;;;;;;;21.60;14.75;;;;;;;;;;5062616;28;20050;-62
2022/10/20 11:49:06;;;;;;;21.52;13.82;;;;;;;;;;5071787;28;20438;-62
2022/10/20 11:51:32;;;;;;;21.85;13.77;;;;;;;;;;5071981;28;20021;-62
2022/10/20 11:54:17;;;;;;;20.42;12.95;;;;;;;;;;5071279;28;20072;-62
2022/10/20 11:56:43;;;;;;;20.85;13.68;;;;;;;;;;5050386;28;20021;-63
2022/10/20 11:59:12;;;;;;;20.23;13.65;;;;;;;;;;5069816;28;20030;-63
2022/10/20 12:01:56;;;;;;;22.45;13.85;;;;;;;;;;5072005;28;20025;-63
2022/10/20 12:04:36;;;;;;;20.65;13.13;;;;;;;;;;5066561;28;20072;-63
2022/10/20 12:07:11;;;;;;;22.50;14.15;;;;;;;;;;5057442;28;20115;-63
2022/10/20 12:09:56;;;;;;;22.45;14.38;;;;;;;;;;5070437;28;20036;-63
2022/10/20 12:12:24;;;;;;;25.08;13.52;;;;;;;;;;5067735;28;20025;-62
2022/10/20 12:14:50;;;;;;;;;;;;;;;;;;5068302;28;20021;-63
2022/10/20 12:17:16;;;;;;;24.88;13.80;;;;;;;;;;5060552;28;19914;-63
2022/10/20 12:19:43;;;;;;;22.48;14.00;;;;;;;;;;5053684;28;20025;-63
2022/10/20 12:22:15;;;;;;;22.42;13.95;;;;;;;;;;5064223;28;20036;-63
2022/10/20 12:24:42;;;;;;;23.75;14.40;;;;;;;;;;5070722;28;20027;-63
2022/10/20 12:27:08;;;;;;;23.02;14.35;;;;;;;;;;5070225;28;20324;-62
2022/10/20 12:29:34;;;;;;;23.13;14.43;;;;;;;;;;5071088;28;20039;-63
2022/10/20 12:32:20;;;;;;;23.75;14.40;;;;;;;;;;5069484;28;20017;-63
2022/10/20 12:34:46;;;;;;;23.55;15.15;;;;;;;;;;5070816;28;20121;-62
2022/10/20 12:37:17;;;;;;;21.08;14.20;;;;;;;;;;5069949;28;20032;-60
2022/10/20 12:39:43;;;;;;;24.50;15.20;;;;;;;;;;5055463;28;20378;-63
2022/10/20 12:42:18;;;;;;;23.17;15.00;;;;;;;;;;5064306;28;20016;-62
2022/10/20 12:44:45;;;;;;;24.05;13.85;;;;;;;;;;5059814;28;20078;-63
2022/10/20 12:47:18;;;;;;;26.38;15.85;;;;;;;;;;5064155;28;20502;-63
2022/10/20 12:49:52;;;;;;;23.50;15.95;;;;;;;;;;5059880;28;20108;-62
2022/10/20 12:52:24;;;;;;;24.98;15.77;;;;;;;;;;5065349;28;20607;-63
2022/10/20 12:55:08;;;;;;;26.17;15.27;;;;;;;;;;5059478;28;20150;-63
2022/10/20 12:57:40;;;;;;;22.75;13.27;;;;;;;;;;5067579;28;20020;-62
2022/10/20 13:00:07;;;;;;;23.35;15.55;;;;;;;;;;5063167;28;20472;-62
2022/10/20 13:02:43;;;;;;;22.90;14.45;;;;;;;;;;5054335;28;20032;-62
2022/10/20 13:05:09;;;;;;;23.95;15.93;;;;;;;;;;5058291;28;20016;-63
2022/10/20 13:07:47;;;;;;;23.27;14.73;;;;;;;;;;5054103;28;20451;-62
2022/10/20 13:10:30;;;;;;;20.83;13.93;;;;;;;;;;5054580;28;20065;-62
2022/10/20 13:13:02;;;;;;;22.88;15.18;;;;;;;;;;5062076;28;20029;-62
2022/10/20 13:15:34;;;;;;;23.38;14.40;;;;;;;;;;5063177;28;20024;-62
2022/10/20 13:18:07;;;;;;;21.23;14.23;;;;;;;;;;5051705;28;20037;-62
2022/10/20 13:20:41;;;;;;;21.70;14.07;;;;;;;;;;5056813;28;20072;-62
2022/10/20 13:23:12;;;;;;;22.23;13.55;;;;;;;;;;5061426;28;20074;-62
2022/10/20 13:25:38;;;;;;;26.73;13.88;;;;;;;;;;5059131;28;20052;-61
2022/10/20 13:28:05;;;;;;;26.58;13.63;;;;;;;;;;5056200;28;20481;-62
2022/10/20 13:30:32;;;;;;;26.92;14.05;;;;;;;;;;5053565;28;20035;-63
2022/10/20 13:33:16;;;;;;;21.98;13.63;;;;;;;;;;5058434;28;20469;-62
2022/10/20 13:35:50;;;;;;;25.33;13.98;;;;;;;;;;5051835;28;20032;-62
2022/10/20 13:38:16;;;;;;;24.23;13.75;;;;;;;;;;5064949;28;20052;-62
2022/10/20 13:40:52;;;;;;;24.40;14.75;;;;;;;;;;5048443;28;20028;-64
2022/10/20 13:43:18;;;;;;;26.85;15.57;;;;;;;;;;5062906;28;20032;-63
2022/10/20 13:45:53;;;;;;;25.48;15.32;;;;;;;;;;5067506;28;20033;-63
2022/10/20 13:48:19;;;;;;;25.80;14.77;;;;;;;;;;4706449;28;10000638;-62
2022/10/20 13:50:49;;;;;;;27.38;16.88;;;;;;;;;;5055097;28;20025;-64
2022/10/20 13:53:30;;;;;;;27.40;18.58;;;;;;;;;;5054915;28;20044;-64
2022/10/20 13:55:59;;;;;;;28.52;16.40;;;;;;;;;;5060339;28;20088;-63
2022/10/20 13:58:26;;;;;;;31.20;19.52;;;;;;;;;;5053735;28;20029;-66
2022/10/20 14:01:23;;;;;;;28.20;19.00;;;;;;;;;;5050223;28;20033;-65
2022/10/20 14:03:49;;;;;;;27.33;17.45;;;;;;;;;;5051207;28;20516;-63
2022/10/20 14:06:27;;;;;;;25.73;18.25;;;;;;;;;;5051581;28;20092;-63
2022/10/20 14:08:57;;;;;;;24.85;19.15;;;;;;;;;;4711324;28;9999623;-63
2022/10/20 14:11:25;;;;;;;24.90;17.42;;;;;;;;;;5055953;28;20032;-63
2022/10/20 14:13:51;;;;;;;25.77;18.20;;;;;;;;;;5065163;28;20025;-63
2022/10/20 14:16:22;;;;;;;25.63;18.75;;;;;;;;;;5066982;28;20726;-62
2022/10/20 14:19:26;;;;;;;26.35;17.40;;;;;;;;;;5051103;28;20028;-63
2022/10/20 14:21:55;;;;;;;29.77;19.88;;;;;;;;;;5039258;28;20036;-63
2022/10/20 14:24:29;;;;;;;29.27;18.75;;;;;;;;;;5056812;28;20025;-63
2022/10/20 14:26:56;;;;;;;27.83;17.75;;;;;;;;;;5049299;28;20029;-63
2022/10/20 14:29:23;;;;;;;28.15;18.55;;;;;;;;;;5049849;28;20028;-61